Time,TemperatureF,DewpointF,PressureIn,WindDirection,WindDirectionDegrees,WindSpeedMPH,WindSpeedGustMPH,Humidity,HourlyPrecipIn,Conditions,Clouds,dailyrainin,SoftwareType,DateUTC
2013-01-14 00:01:00,40.0,15.0,30.11,WNW,303,5.0,9.0,35,0.00,,,0.00,,2013-01-14 08:01:00,
2013-01-14 00:11:00,40.0,15.0,30.11,WNW,303,5.0,9.0,35,0.00,,,0.00,,2013-01-14 08:11:00,
2013-01-14 00:22:00,42.0,14.0,30.12,NW,323,3.0,8.0,32,0.00,,,0.00,,2013-01-14 08:22:00,
2013-01-14 00:32:00,41.0,13.0,30.12,NNE,19,2.0,6.0,32,0.00,,,0.00,,2013-01-14 08:32:00,
2013-01-14 00:42:00,41.0,13.0,30.12,NNE,19,2.0,6.0,32,0.00,,,0.00,,2013-01-14 08:42:00,
2013-01-14 00:53:00,41.0,13.0,30.13,North,360,1.0,4.0,32,0.00,,,0.00,,2013-01-14 08:53:00,
2013-01-14 01:02:00,41.0,13.0,30.13,NNW,346,0.0,4.0,31,0.00,,,0.00,,2013-01-14 09:02:00,
2013-01-14 01:11:00,41.0,13.0,30.13,NNW,346,0.0,4.0,31,0.00,,,0.00,,2013-01-14 09:11:00,
2013-01-14 01:22:00,40.0,13.0,30.14,NW,325,2.0,5.0,32,0.00,,,0.00,,2013-01-14 09:22:00,
2013-01-14 01:33:00,40.0,12.0,30.14,NW,320,3.0,6.0,31,0.00,,,0.00,,2013-01-14 09:33:00,
2013-01-14 01:42:00,40.0,12.0,30.14,NW,320,3.0,6.0,31,0.00,,,0.00,,2013-01-14 09:42:00,
2013-01-14 01:52:00,40.0,11.0,30.14,NW,313,0.0,3.0,30,0.00,,,0.00,,2013-01-14 09:52:00,
2013-01-14 02:02:00,39.0,12.0,30.15,NW,313,0.0,0.0,32,0.00,,,0.00,,2013-01-14 10:02:00,
2013-01-14 02:11:00,39.0,12.0,30.15,NW,313,0.0,0.0,32,0.00,,,0.00,,2013-01-14 10:11:00,
2013-01-14 02:22:00,39.0,11.0,30.16,NW,314,2.0,4.0,31,0.00,,,0.00,,2013-01-14 10:22:00,
2013-01-14 02:32:00,39.0,10.0,30.16,NW,317,0.0,5.0,30,0.00,,,0.00,,2013-01-14 10:32:00,
2013-01-14 02:42:00,39.0,10.0,30.16,NW,317,0.0,5.0,30,0.00,,,0.00,,2013-01-14 10:42:00,
2013-01-14 02:52:00,40.0,11.0,30.16,NW,320,1.0,5.0,30,0.00,,,0.00,,2013-01-14 10:52:00,
2013-01-14 03:01:00,39.0,10.0,30.16,NW,318,2.0,4.0,30,0.00,,,0.00,,2013-01-14 11:01:00,
2013-01-14 03:11:00,39.0,10.0,30.16,NW,318,2.0,4.0,30,0.00,,,0.00,,2013-01-14 11:11:00,
2013-01-14 03:22:00,39.0,11.0,30.16,NW,307,1.0,5.0,31,0.00,,,0.00,,2013-01-14 11:22:00,
2013-01-14 03:32:00,40.0,10.0,30.16,NNW,331,0.0,6.0,29,0.00,,,0.00,,2013-01-14 11:32:00,
2013-01-14 03:42:00,40.0,10.0,30.16,NNW,331,0.0,6.0,29,0.00,,,0.00,,2013-01-14 11:42:00,
2013-01-14 03:53:00,38.0,10.0,30.16,NNW,331,0.0,0.0,31,0.00,,,0.00,,2013-01-14 11:53:00,
2013-01-14 04:02:00,38.0,11.0,30.16,SSW,203,0.0,3.0,32,0.00,,,0.00,,2013-01-14 12:02:00,
2013-01-14 04:12:00,38.0,11.0,30.16,SSW,203,0.0,3.0,32,0.00,,,0.00,,2013-01-14 12:12:00,
2013-01-14 04:22:00,37.0,9.0,30.15,SSW,203,0.0,3.0,31,0.00,,,0.00,,2013-01-14 12:22:00,
2013-01-14 04:32:00,38.0,9.0,30.16,SW,221,0.0,2.0,29,0.00,,,0.00,,2013-01-14 12:32:00,
2013-01-14 04:42:00,38.0,9.0,30.16,SW,221,0.0,2.0,29,0.00,,,0.00,,2013-01-14 12:42:00,
2013-01-14 04:53:00,39.0,8.0,30.16,SW,234,0.0,3.0,27,0.00,,,0.00,,2013-01-14 12:53:00,
2013-01-14 05:02:00,37.0,8.0,30.16,WSW,237,0.0,0.0,30,0.00,,,0.00,,2013-01-14 13:02:00,
2013-01-14 05:12:00,37.0,8.0,30.16,WSW,237,0.0,0.0,30,0.00,,,0.00,,2013-01-14 13:12:00,
2013-01-14 05:22:00,38.0,9.0,30.17,East,86,0.0,4.0,29,0.00,,,0.00,,2013-01-14 13:22:00,
2013-01-14 05:33:00,36.0,10.0,30.16,East,86,0.0,0.0,33,0.00,,,0.00,,2013-01-14 13:33:00,
2013-01-14 05:42:00,36.0,10.0,30.16,East,86,0.0,0.0,33,0.00,,,0.00,,2013-01-14 13:42:00,
2013-01-14 05:53:00,37.0,8.0,30.17,East,86,0.0,0.0,30,0.00,,,0.00,,2013-01-14 13:53:00,
2013-01-14 06:02:00,37.0,10.0,30.18,East,86,0.0,0.0,32,0.00,,,0.00,,2013-01-14 14:02:00,
2013-01-14 06:12:00,37.0,10.0,30.18,East,86,0.0,0.0,32,0.00,,,0.00,,2013-01-14 14:12:00,
2013-01-14 06:22:00,36.0,10.0,30.18,East,86,0.0,2.0,33,0.00,,,0.00,,2013-01-14 14:22:00,
2013-01-14 06:32:00,36.0,10.0,30.19,East,86,0.0,1.0,33,0.00,,,0.00,,2013-01-14 14:32:00,
2013-01-14 06:42:00,36.0,10.0,30.19,East,86,0.0,1.0,33,0.00,,,0.00,,2013-01-14 14:42:00,
2013-01-14 06:53:00,35.0,9.0,30.19,East,88,0.0,3.0,33,0.00,,,0.00,,2013-01-14 14:53:00,
2013-01-14 07:02:00,35.0,10.0,30.20,East,92,0.0,0.0,35,0.00,,,0.00,,2013-01-14 15:02:00,
2013-01-14 07:12:00,35.0,10.0,30.20,East,92,0.0,0.0,35,0.00,,,0.00,,2013-01-14 15:12:00,
2013-01-14 07:23:00,33.0,10.0,30.21,East,92,0.0,0.0,37,0.00,,,0.00,,2013-01-14 15:23:00,
2013-01-14 07:33:00,33.0,13.0,30.22,East,92,0.0,0.0,43,0.00,,,0.00,,2013-01-14 15:33:00,
2013-01-14 07:42:00,33.0,13.0,30.22,East,92,0.0,0.0,43,0.00,,,0.00,,2013-01-14 15:42:00,
2013-01-14 07:53:00,32.0,12.0,30.23,East,90,0.0,2.0,43,0.00,,,0.00,,2013-01-14 15:53:00,
2013-01-14 08:02:00,33.0,12.0,30.24,East,90,0.0,0.0,42,0.00,,,0.00,,2013-01-14 16:02:00,
2013-01-14 08:12:00,33.0,12.0,30.24,East,90,0.0,0.0,42,0.00,,,0.00,,2013-01-14 16:12:00,
2013-01-14 08:22:00,34.0,12.0,30.24,East,90,0.0,0.0,40,0.00,,,0.00,,2013-01-14 16:22:00,
2013-01-14 08:32:00,35.0,13.0,30.24,East,90,0.0,0.0,40,0.00,,,0.00,,2013-01-14 16:32:00,
2013-01-14 08:42:00,35.0,13.0,30.24,East,90,0.0,0.0,40,0.00,,,0.00,,2013-01-14 16:42:00,
2013-01-14 08:53:00,35.0,14.0,30.26,East,88,0.0,4.0,41,0.00,,,0.00,,2013-01-14 16:53:00,
2013-01-14 09:02:00,37.0,14.0,30.26,North,5,0.0,0.0,38,0.00,,,0.00,,2013-01-14 17:02:00,
2013-01-14 09:11:00,37.0,14.0,30.26,North,5,0.0,0.0,38,0.00,,,0.00,,2013-01-14 17:11:00,
2013-01-14 09:22:00,38.0,12.0,30.27,North,360,0.0,0.0,34,0.00,,,0.00,,2013-01-14 17:22:00,
2013-01-14 09:33:00,40.0,13.0,30.26,North,360,0.0,0.0,32,0.00,,,0.00,,2013-01-14 17:33:00,
2013-01-14 09:42:00,40.0,13.0,30.26,North,360,0.0,0.0,32,0.00,,,0.00,,2013-01-14 17:42:00,
2013-01-14 09:53:00,41.0,11.0,30.27,NW,326,0.0,0.0,29,0.00,,,0.00,,2013-01-14 17:53:00,
2013-01-14 10:02:00,41.0,15.0,30.27,WSW,253,0.0,1.0,34,0.00,,,0.00,,2013-01-14 18:02:00,
2013-01-14 10:12:00,41.0,15.0,30.27,WSW,253,0.0,1.0,34,0.00,,,0.00,,2013-01-14 18:12:00,
2013-01-14 10:22:00,43.0,14.0,30.28,WSW,253,0.0,1.0,30,0.00,,,0.00,,2013-01-14 18:22:00,
2013-01-14 10:33:00,44.0,14.0,30.27,WSW,251,0.0,0.0,29,0.00,,,0.00,,2013-01-14 18:33:00,
2013-01-14 10:42:00,44.0,14.0,30.27,WSW,251,0.0,0.0,29,0.00,,,0.00,,2013-01-14 18:42:00,
2013-01-14 10:52:00,45.0,12.0,30.27,South,190,1.0,3.0,26,0.00,,,0.00,,2013-01-14 18:52:00,
2013-01-14 11:02:00,45.0,10.0,30.27,SSW,206,1.0,5.0,24,0.00,,,0.00,,2013-01-14 19:02:00,
2013-01-14 11:12:00,45.0,10.0,30.27,SSW,206,1.0,5.0,24,0.00,,,0.00,,2013-01-14 19:12:00,
2013-01-14 11:22:00,47.0,14.0,30.26,SE,126,1.0,6.0,26,0.00,,,0.00,,2013-01-14 19:22:00,
2013-01-14 11:32:00,47.0,10.0,30.26,South,172,2.0,5.0,22,0.00,,,0.00,,2013-01-14 19:32:00,
2013-01-14 11:42:00,47.0,10.0,30.26,South,172,2.0,5.0,22,0.00,,,0.00,,2013-01-14 19:42:00,
2013-01-14 11:53:00,47.0,11.0,30.25,South,171,2.0,5.0,23,0.00,,,0.00,,2013-01-14 19:53:00,
2013-01-14 12:03:00,47.0,11.0,30.23,WSW,250,1.0,7.0,23,0.00,,,0.00,,2013-01-14 20:03:00,
2013-01-14 12:12:00,47.0,11.0,30.23,WSW,250,1.0,7.0,23,0.00,,,0.00,,2013-01-14 20:12:00,
2013-01-14 12:22:00,49.0,13.0,30.23,SSW,201,1.0,5.0,23,0.00,,,0.00,,2013-01-14 20:22:00,
2013-01-14 12:32:00,51.0,16.0,30.24,WSW,250,1.0,6.0,24,0.00,,,0.00,,2013-01-14 20:32:00,
2013-01-14 12:42:00,51.0,16.0,30.24,WSW,250,1.0,6.0,24,0.00,,,0.00,,2013-01-14 20:42:00,
2013-01-14 12:53:00,50.0,14.0,30.23,WSW,238,1.0,7.0,23,0.00,,,0.00,,2013-01-14 20:53:00,
2013-01-14 13:02:00,51.0,15.0,30.23,West,271,0.0,5.0,23,0.00,,,0.00,,2013-01-14 21:02:00,
2013-01-14 13:12:00,51.0,15.0,30.23,West,271,0.0,5.0,23,0.00,,,0.00,,2013-01-14 21:12:00,
2013-01-14 13:22:00,50.0,15.0,30.23,WNW,290,0.0,6.0,24,0.00,,,0.00,,2013-01-14 21:22:00,
2013-01-14 13:32:00,51.0,15.0,30.22,SW,223,2.0,6.0,23,0.00,,,0.00,,2013-01-14 21:32:00,
2013-01-14 13:42:00,51.0,15.0,30.22,SW,223,2.0,6.0,23,0.00,,,0.00,,2013-01-14 21:42:00,
2013-01-14 13:53:00,52.0,14.0,30.22,SW,225,2.0,6.0,22,0.00,,,0.00,,2013-01-14 21:53:00,
2013-01-14 14:02:00,52.0,13.0,30.23,SE,137,4.0,9.0,21,0.00,,,0.00,,2013-01-14 22:02:00,
2013-01-14 14:12:00,52.0,13.0,30.23,SE,137,4.0,9.0,21,0.00,,,0.00,,2013-01-14 22:12:00,
2013-01-14 14:22:00,52.0,13.0,30.23,WSW,240,0.0,7.0,21,0.00,,,0.00,,2013-01-14 22:22:00,
2013-01-14 14:32:00,53.0,23.0,30.23,SW,228,1.0,7.0,31,0.00,,,0.00,,2013-01-14 22:32:00,
2013-01-14 14:42:00,53.0,23.0,30.23,SW,228,1.0,7.0,31,0.00,,,0.00,,2013-01-14 22:42:00,
2013-01-14 14:52:00,52.0,23.0,30.24,WSW,242,0.0,7.0,32,0.00,,,0.00,,2013-01-14 22:52:00,
2013-01-14 15:02:00,52.0,25.0,30.24,West,259,3.0,7.0,35,0.00,,,0.00,,2013-01-14 23:02:00,
2013-01-14 15:12:00,52.0,25.0,30.24,West,259,3.0,7.0,35,0.00,,,0.00,,2013-01-14 23:12:00,
2013-01-14 15:22:00,51.0,24.0,30.24,SW,234,3.0,7.0,35,0.00,,,0.00,,2013-01-14 23:22:00,
2013-01-14 15:32:00,51.0,26.0,30.24,WNW,296,2.0,7.0,37,0.00,,,0.00,,2013-01-14 23:32:00,
2013-01-14 15:42:00,51.0,26.0,30.24,WNW,296,2.0,7.0,37,0.00,,,0.00,,2013-01-14 23:42:00,
2013-01-14 15:53:00,51.0,26.0,30.24,SW,226,3.0,10.0,37,0.00,,,0.00,,2013-01-14 23:53:00,
2013-01-14 16:02:00,50.0,24.0,30.24,WSW,245,3.0,6.0,36,0.00,,,0.00,,2013-01-15 00:02:00,
2013-01-14 16:12:00,50.0,24.0,30.24,WSW,245,3.0,6.0,36,0.00,,,0.00,,2013-01-15 00:12:00,
2013-01-14 16:22:00,49.0,26.0,30.25,SW,215,2.0,8.0,40,0.00,,,0.00,,2013-01-15 00:22:00,
2013-01-14 16:32:00,48.0,26.0,30.26,SW,225,2.0,5.0,42,0.00,,,0.00,,2013-01-15 00:32:00,
2013-01-14 16:42:00,48.0,26.0,30.26,SW,225,2.0,5.0,42,0.00,,,0.00,,2013-01-15 00:42:00,
2013-01-14 16:52:00,48.0,27.0,30.26,SW,226,1.0,5.0,44,0.00,,,0.00,,2013-01-15 00:52:00,
2013-01-14 17:01:00,47.0,27.0,30.26,SW,223,0.0,3.0,45,0.00,,,0.00,,2013-01-15 01:01:00,
2013-01-14 17:12:00,46.0,27.0,30.27,South,188,0.0,4.0,48,0.00,,,0.00,,2013-01-15 01:12:00,
2013-01-14 17:22:00,46.0,27.0,30.27,South,188,0.0,4.0,48,0.00,,,0.00,,2013-01-15 01:22:00,
2013-01-14 17:32:00,45.0,28.0,30.28,South,188,0.0,0.0,51,0.00,,,0.00,,2013-01-15 01:32:00,
2013-01-14 17:42:00,45.0,28.0,30.28,South,188,0.0,0.0,51,0.00,,,0.00,,2013-01-15 01:42:00,
2013-01-14 17:52:00,44.0,28.0,30.28,South,188,0.0,0.0,52,0.00,,,0.00,,2013-01-15 01:52:00,
2013-01-14 18:01:00,43.0,28.0,30.28,South,188,0.0,0.0,54,0.00,,,0.00,,2013-01-15 02:01:00,
2013-01-14 18:11:00,43.0,28.0,30.28,South,188,0.0,0.0,54,0.00,,,0.00,,2013-01-15 02:11:00,
2013-01-14 18:22:00,42.0,27.0,30.29,South,188,0.0,0.0,56,0.00,,,0.00,,2013-01-15 02:22:00,
2013-01-14 18:32:00,41.0,27.0,30.29,South,188,0.0,0.0,58,0.00,,,0.00,,2013-01-15 02:32:00,
2013-01-14 18:42:00,41.0,27.0,30.29,South,188,0.0,0.0,58,0.00,,,0.00,,2013-01-15 02:42:00,
2013-01-14 18:53:00,41.0,29.0,30.30,South,188,0.0,0.0,61,0.00,,,0.00,,2013-01-15 02:53:00,
2013-01-14 19:02:00,40.0,26.0,30.30,South,176,0.0,3.0,56,0.00,,,0.00,,2013-01-15 03:02:00,
2013-01-14 19:11:00,40.0,26.0,30.30,South,176,0.0,3.0,56,0.00,,,0.00,,2013-01-15 03:11:00,
2013-01-14 19:22:00,41.0,27.0,30.31,South,175,0.0,2.0,56,0.00,,,0.00,,2013-01-15 03:22:00,
2013-01-14 19:32:00,41.0,25.0,30.32,South,172,1.0,3.0,53,0.00,,,0.00,,2013-01-15 03:32:00,
2013-01-14 19:42:00,41.0,25.0,30.32,South,172,1.0,3.0,53,0.00,,,0.00,,2013-01-15 03:42:00,
2013-01-14 19:52:00,40.0,24.0,30.32,East,101,1.0,3.0,52,0.00,,,0.00,,2013-01-15 03:52:00,
2013-01-14 20:02:00,40.0,23.0,30.32,East,101,0.0,2.0,50,0.00,,,0.00,,2013-01-15 04:02:00,
2013-01-14 20:11:00,40.0,23.0,30.32,East,101,0.0,2.0,50,0.00,,,0.00,,2013-01-15 04:11:00,
2013-01-14 20:22:00,40.0,23.0,30.31,East,100,0.0,4.0,51,0.00,,,0.00,,2013-01-15 04:22:00,
2013-01-14 20:32:00,39.0,23.0,30.30,East,100,2.0,3.0,52,0.00,,,0.00,,2013-01-15 04:32:00,
2013-01-14 20:42:00,39.0,23.0,30.30,East,100,2.0,3.0,52,0.00,,,0.00,,2013-01-15 04:42:00,
2013-01-14 20:52:00,40.0,24.0,30.31,NNE,32,1.0,6.0,52,0.00,,,0.00,,2013-01-15 04:52:00,
2013-01-14 21:03:00,40.0,23.0,30.31,NNE,14,3.0,5.0,50,0.00,,,0.00,,2013-01-15 05:03:00,
2013-01-14 21:12:00,39.0,22.0,30.31,NNE,14,2.0,4.0,51,0.00,,,0.00,,2013-01-15 05:12:00,
2013-01-14 21:22:00,39.0,22.0,30.31,NNE,14,2.0,4.0,51,0.00,,,0.00,,2013-01-15 05:22:00,
2013-01-14 21:32:00,40.0,23.0,30.31,NNE,14,0.0,0.0,51,0.00,,,0.00,,2013-01-15 05:32:00,
2013-01-14 21:42:00,40.0,23.0,30.31,NNE,14,0.0,0.0,51,0.00,,,0.00,,2013-01-15 05:42:00,
2013-01-14 21:52:00,39.0,22.0,30.31,NNE,15,2.0,4.0,51,0.00,,,0.00,,2013-01-15 05:52:00,
2013-01-14 22:02:00,38.0,23.0,30.32,NNE,15,1.0,3.0,54,0.00,,,0.00,,2013-01-15 06:02:00,
2013-01-14 22:12:00,38.0,23.0,30.32,NNE,15,1.0,3.0,54,0.00,,,0.00,,2013-01-15 06:12:00,
2013-01-14 22:22:00,35.0,24.0,30.31,NNE,15,0.0,0.0,63,0.00,,,0.00,,2013-01-15 06:22:00,
2013-01-14 22:32:00,35.0,24.0,30.32,NNE,15,0.0,0.0,64,0.00,,,0.00,,2013-01-15 06:32:00,
2013-01-14 22:42:00,35.0,24.0,30.32,NNE,15,0.0,0.0,64,0.00,,,0.00,,2013-01-15 06:42:00,
2013-01-14 22:52:00,34.0,23.0,30.31,NNE,15,0.0,0.0,64,0.00,,,0.00,,2013-01-15 06:52:00,
2013-01-14 23:02:00,36.0,23.0,30.32,NNE,17,1.0,4.0,59,0.00,,,0.00,,2013-01-15 07:02:00,
2013-01-14 23:12:00,36.0,23.0,30.32,NNE,17,1.0,4.0,59,0.00,,,0.00,,2013-01-15 07:12:00,
2013-01-14 23:22:00,37.0,22.0,30.32,North,5,2.0,4.0,54,0.00,,,0.00,,2013-01-15 07:22:00,
2013-01-14 23:32:00,39.0,21.0,30.32,North,360,3.0,4.0,49,0.00,,,0.00,,2013-01-15 07:32:00,
2013-01-14 23:42:00,39.0,21.0,30.32,North,360,3.0,4.0,49,0.00,,,0.00,,2013-01-15 07:42:00,
2013-01-14 23:52:00,36.0,22.0,30.32,NE,44,3.0,7.0,56,0.00,,,0.00,,2013-01-15 07:52:00,